sensor_id;sensor_type;location;lat;lon;timestamp;pressure;altitude;pressure_sealevel;temperature;humidity
24962;BME280;12992;50.884;13.668;2022-12-29T00:01:19;96593.28;;;8.56;83.12
24962;BME280;12992;50.884;13.668;2022-12-29T00:03:46;96584.66;;;8.59;84.09
24962;BME280;12992;50.884;13.668;2022-12-29T00:06:11;96589.34;;;8.69;82.56
24962;BME280;12992;50.884;13.668;2022-12-29T00:08:36;96591.56;;;8.82;82.31
24962;BME280;12992;50.884;13.668;2022-12-29T00:11:10;96579.94;;;8.87;81.36
24962;BME280;12992;50.884;13.668;2022-12-29T00:13:36;96582.66;;;8.92;82.13
24962;BME280;12992;50.884;13.668;2022-12-29T00:16:20;96572.88;;;8.91;81.58
24962;BME280;12992;50.884;13.668;2022-12-29T00:18:46;96581.06;;;8.96;81.13
24962;BME280;12992;50.884;13.668;2022-12-29T00:21:16;96559.34;;;8.96;81.63
24962;BME280;12992;50.884;13.668;2022-12-29T00:24:00;96576.19;;;8.98;80.32
24962;BME280;12992;50.884;13.668;2022-12-29T00:26:45;96578.38;;;8.96;81.06
24962;BME280;12992;50.884;13.668;2022-12-29T00:29:29;96575.59;;;8.91;81.85
24962;BME280;12992;50.884;13.668;2022-12-29T00:32:12;96578.81;;;8.77;84.59
24962;BME280;12992;50.884;13.668;2022-12-29T00:34:56;96565.63;;;8.54;87.67
24962;BME280;12992;50.884;13.668;2022-12-29T00:37:41;96554.84;;;8.32;90.57
24962;BME280;12992;50.884;13.668;2022-12-29T00:40:26;96565.41;;;8.29;91.79
24962;BME280;12992;50.884;13.668;2022-12-29T00:43:10;96544.09;;;8.10;94.03
24962;BME280;12992;50.884;13.668;2022-12-29T00:45:54;96551.06;;;8.01;94.88
24962;BME280;12992;50.884;13.668;2022-12-29T00:48:19;96552.31;;;7.88;98.24
24962;BME280;12992;50.884;13.668;2022-12-29T00:51:06;96539.50;;;7.79;99.15
24962;BME280;12992;50.884;13.668;2022-12-29T00:53:31;96543.22;;;7.73;100.00
24962;BME280;12992;50.884;13.668;2022-12-29T00:55:57;96536.09;;;7.61;100.00
24962;BME280;12992;50.884;13.668;2022-12-29T00:58:22;96536.84;;;7.57;100.00
24962;BME280;12992;50.884;13.668;2022-12-29T01:00:47;96539.25;;;7.53;100.00
24962;BME280;12992;50.884;13.668;2022-12-29T01:03:13;96530.03;;;7.54;100.00
24962;BME280;12992;50.884;13.668;2022-12-29T01:05:38;96530.50;;;7.46;100.00
24962;BME280;12992;50.884;13.668;2022-12-29T01:08:05;96529.63;;;7.41;100.00
24962;BME280;12992;50.884;13.668;2022-12-29T01:10:30;96531.16;;;7.31;100.00
24962;BME280;12992;50.884;13.668;2022-12-29T01:12:55;96542.81;;;7.32;100.00
24962;BME280;12992;50.884;13.668;2022-12-29T01:15:21;96544.69;;;7.31;100.00
24962;BME280;12992;50.884;13.668;2022-12-29T01:17:47;96534.06;;;7.25;100.00
24962;BME280;12992;50.884;13.668;2022-12-29T01:20:13;96551.97;;;7.26;100.00
24962;BME280;12992;50.884;13.668;2022-12-29T01:22:39;96542.19;;;7.25;100.00
24962;BME280;12992;50.884;13.668;2022-12-29T01:25:05;96560.09;;;7.26;100.00
24962;BME280;12992;50.884;13.668;2022-12-29T01:27:30;96553.03;;;7.25;100.00
24962;BME280;12992;50.884;13.668;2022-12-29T01:29:56;96553.84;;;7.25;100.00
24962;BME280;12992;50.884;13.668;2022-12-29T01:32:22;96555.09;;;7.18;100.00
24962;BME280;12992;50.884;13.668;2022-12-29T01:34:47;96564.22;;;7.12;100.00
24962;BME280;12992;50.884;13.668;2022-12-29T01:37:12;96562.91;;;7.14;100.00
24962;BME280;12992;50.884;13.668;2022-12-29T01:39:38;96569.56;;;7.06;100.00
24962;BME280;12992;50.884;13.668;2022-12-29T01:42:03;96566.38;;;7.09;100.00
24962;BME280;12992;50.884;13.668;2022-12-29T01:44:52;96564.75;;;7.08;100.00
24962;BME280;12992;50.884;13.668;2022-12-29T01:47:26;96568.31;;;7.14;100.00
24962;BME280;12992;50.884;13.668;2022-12-29T01:49:55;96570.47;;;7.12;100.00
24962;BME280;12992;50.884;13.668;2022-12-29T01:52:22;96572.06;;;7.08;100.00
24962;BME280;12992;50.884;13.668;2022-12-29T01:54:52;96579.03;;;7.04;100.00
24962;BME280;12992;50.884;13.668;2022-12-29T01:57:25;96578.22;;;7.03;100.00
24962;BME280;12992;50.884;13.668;2022-12-29T01:59:55;96587.47;;;7.07;100.00
24962;BME280;12992;50.884;13.668;2022-12-29T02:02:21;96586.41;;;7.08;100.00
24962;BME280;12992;50.884;13.668;2022-12-29T02:04:47;96587.53;;;7.13;100.00
24962;BME280;12992;50.884;13.668;2022-12-29T02:07:21;96581.13;;;7.19;100.00
24962;BME280;12992;50.884;13.668;2022-12-29T02:09:49;96568.84;;;7.11;100.00
24962;BME280;12992;50.884;13.668;2022-12-29T02:12:17;96581.03;;;7.14;100.00
24962;BME280;12992;50.884;13.668;2022-12-29T02:14:44;96581.63;;;7.16;100.00
24962;BME280;12992;50.884;13.668;2022-12-29T02:17:32;96576.41;;;7.09;100.00
24962;BME280;12992;50.884;13.668;2022-12-29T02:28:41;96572.53;;;7.27;100.00
24962;BME280;12992;50.884;13.668;2022-12-29T02:31:31;96567.44;;;7.30;100.00
24962;BME280;12992;50.884;13.668;2022-12-29T02:34:31;96563.72;;;7.36;100.00
24962;BME280;12992;50.884;13.668;2022-12-29T02:37:30;96572.25;;;7.50;100.00
24962;BME280;12992;50.884;13.668;2022-12-29T02:40:22;96559.31;;;7.57;100.00
24962;BME280;12992;50.884;13.668;2022-12-29T02:42:55;96558.03;;;7.60;100.00
24962;BME280;12992;50.884;13.668;2022-12-29T02:45:31;96566.25;;;7.70;100.00
24962;BME280;12992;50.884;13.668;2022-12-29T02:48:22;96578.56;;;7.83;100.00
24962;BME280;12992;50.884;13.668;2022-12-29T02:51:04;96558.47;;;7.79;100.00
24962;BME280;12992;50.884;13.668;2022-12-29T02:53:33;96562.66;;;7.91;100.00
24962;BME280;12992;50.884;13.668;2022-12-29T02:56:18;96568.75;;;8.09;100.00
24962;BME280;12992;50.884;13.668;2022-12-29T02:58:44;96570.47;;;8.20;100.00
24962;BME280;12992;50.884;13.668;2022-12-29T03:04:18;96567.44;;;8.43;100.00
24962;BME280;12992;50.884;13.668;2022-12-29T03:10:01;96578.47;;;8.69;100.00
24962;BME280;12992;50.884;13.668;2022-12-29T03:12:34;96571.16;;;8.74;100.00
24962;BME280;12992;50.884;13.668;2022-12-29T03:15:28;96569.56;;;8.78;100.00
24962;BME280;12992;50.884;13.668;2022-12-29T03:18:21;96562.50;;;8.77;100.00
24962;BME280;12992;50.884;13.668;2022-12-29T03:20:54;96570.66;;;8.83;100.00
24962;BME280;12992;50.884;13.668;2022-12-29T03:23:23;96567.44;;;8.86;100.00
24962;BME280;12992;50.884;13.668;2022-12-29T03:25:56;96559.81;;;8.83;100.00
24962;BME280;12992;50.884;13.668;2022-12-29T03:28:25;96557.91;;;8.83;100.00
24962;BME280;12992;50.884;13.668;2022-12-29T03:30:53;96559.03;;;8.87;100.00
24962;BME280;12992;50.884;13.668;2022-12-29T03:33:25;96562.63;;;8.98;100.00
24962;BME280;12992;50.884;13.668;2022-12-29T03:35:58;96558.84;;;9.04;100.00
24962;BME280;12992;50.884;13.668;2022-12-29T03:38:35;96550.44;;;9.05;100.00
24962;BME280;12992;50.884;13.668;2022-12-29T03:41:06;96561.63;;;9.19;99.89
24962;BME280;12992;50.884;13.668;2022-12-29T03:43:33;96550.78;;;9.19;100.00
24962;BME280;12992;50.884;13.668;2022-12-29T03:45:58;96549.38;;;9.17;100.00
24962;BME280;12992;50.884;13.668;2022-12-29T03:48:24;96542.09;;;9.22;100.00
24962;BME280;12992;50.884;13.668;2022-12-29T03:50:52;96545.88;;;9.26;100.00
24962;BME280;12992;50.884;13.668;2022-12-29T03:53:18;96547.00;;;9.30;99.75
24962;BME280;12992;50.884;13.668;2022-12-29T03:55:44;96544.84;;;9.32;99.24
24962;BME280;12992;50.884;13.668;2022-12-29T03:58:10;96541.84;;;9.34;99.69
24962;BME280;12992;50.884;13.668;2022-12-29T04:01:00;96532.88;;;9.33;99.16
24962;BME280;12992;50.884;13.668;2022-12-29T04:03:25;96535.59;;;9.33;99.90
24962;BME280;12992;50.884;13.668;2022-12-29T04:05:50;96529.66;;;9.36;99.65
24962;BME280;12992;50.884;13.668;2022-12-29T04:08:16;96532.63;;;9.40;99.55
24962;BME280;12992;50.884;13.668;2022-12-29T04:10:42;96541.88;;;9.44;99.45
24962;BME280;12992;50.884;13.668;2022-12-29T04:13:07;96544.63;;;9.49;98.47
24962;BME280;12992;50.884;13.668;2022-12-29T04:15:32;96544.88;;;9.48;99.62
24962;BME280;12992;50.884;13.668;2022-12-29T04:17:58;96545.72;;;9.48;99.45
24962;BME280;12992;50.884;13.668;2022-12-29T04:20:23;96542.75;;;9.55;99.01
24962;BME280;12992;50.884;13.668;2022-12-29T04:23:08;96535.66;;;9.54;99.44
24962;BME280;12992;50.884;13.668;2022-12-29T04:25:34;96534.06;;;9.63;98.49
24962;BME280;12992;50.884;13.668;2022-12-29T04:28:01;96529.72;;;9.67;97.51
24962;BME280;12992;50.884;13.668;2022-12-29T04:30:49;96525.63;;;9.70;96.78
24962;BME280;12992;50.884;13.668;2022-12-29T04:33:32;96540.31;;;9.74;96.10
24962;BME280;12992;50.884;13.668;2022-12-29T04:35:58;96538.41;;;9.79;95.20
24962;BME280;12992;50.884;13.668;2022-12-29T04:38:24;96535.72;;;9.84;95.07
24962;BME280;12992;50.884;13.668;2022-12-29T04:40:50;96529.16;;;9.80;96.07
24962;BME280;12992;50.884;13.668;2022-12-29T04:43:18;96530.53;;;9.78;95.83
24962;BME280;12992;50.884;13.668;2022-12-29T04:46:07;96524.28;;;9.82;94.38
24962;BME280;12992;50.884;13.668;2022-12-29T04:49:04;96533.81;;;9.85;94.69
24962;BME280;12992;50.884;13.668;2022-12-29T04:51:46;96523.22;;;9.83;95.52
24962;BME280;12992;50.884;13.668;2022-12-29T04:54:13;96530.81;;;9.81;95.10
24962;BME280;12992;50.884;13.668;2022-12-29T04:56:39;96547.66;;;9.88;93.89
24962;BME280;12992;50.884;13.668;2022-12-29T04:59:04;96548.25;;;9.90;95.19
24962;BME280;12992;50.884;13.668;2022-12-29T05:01:30;96541.72;;;9.81;97.00
24962;BME280;12992;50.884;13.668;2022-12-29T05:03:56;96539.75;;;9.67;100.00
24962;BME280;12992;50.884;13.668;2022-12-29T05:06:22;96536.47;;;9.49;100.00
24962;BME280;12992;50.884;13.668;2022-12-29T05:08:48;96528.00;;;9.35;100.00
24962;BME280;12992;50.884;13.668;2022-12-29T05:11:14;96536.13;;;9.30;100.00
24962;BME280;12992;50.884;13.668;2022-12-29T05:13:39;96532.00;;;9.18;100.00
24962;BME280;12992;50.884;13.668;2022-12-29T05:16:05;96551.31;;;9.26;100.00
24962;BME280;12992;50.884;13.668;2022-12-29T05:18:30;96559.22;;;9.28;100.00
24962;BME280;12992;50.884;13.668;2022-12-29T05:20:58;96553.53;;;9.29;100.00
24962;BME280;12992;50.884;13.668;2022-12-29T05:23:23;96545.38;;;9.29;100.00
24962;BME280;12992;50.884;13.668;2022-12-29T05:25:59;96545.38;;;9.29;100.00
24962;BME280;12992;50.884;13.668;2022-12-29T05:28:32;96547.56;;;9.32;100.00
24962;BME280;12992;50.884;13.668;2022-12-29T05:31:04;96549.72;;;9.30;100.00
24962;BME280;12992;50.884;13.668;2022-12-29T05:33:31;96553.53;;;9.29;100.00
24962;BME280;12992;50.884;13.668;2022-12-29T05:35:56;96562.25;;;9.36;100.00
24962;BME280;12992;50.884;13.668;2022-12-29T05:38:22;96559.25;;;9.38;100.00
24962;BME280;12992;50.884;13.668;2022-12-29T05:40:48;96571.53;;;9.46;100.00
24962;BME280;12992;50.884;13.668;2022-12-29T05:43:32;96573.69;;;9.49;100.00
24962;BME280;12992;50.884;13.668;2022-12-29T05:46:09;96567.72;;;9.52;100.00
24962;BME280;12992;50.884;13.668;2022-12-29T05:48:44;96574.00;;;9.57;100.00
24962;BME280;12992;50.884;13.668;2022-12-29T05:51:18;96565.28;;;9.60;100.00
24962;BME280;12992;50.884;13.668;2022-12-29T05:53:49;96553.09;;;9.63;100.00
24962;BME280;12992;50.884;13.668;2022-12-29T05:56:15;96557.44;;;9.64;100.00
24962;BME280;12992;50.884;13.668;2022-12-29T05:58:40;96559.06;;;9.65;100.00
24962;BME280;12992;50.884;13.668;2022-12-29T06:01:06;96554.16;;;9.62;100.00
24962;BME280;12992;50.884;13.668;2022-12-29T06:03:31;96552.00;;;9.64;100.00
24962;BME280;12992;50.884;13.668;2022-12-29T06:05:57;96563.41;;;9.66;100.00
24962;BME280;12992;50.884;13.668;2022-12-29T06:08:22;96568.34;;;9.74;100.00
24962;BME280;12992;50.884;13.668;2022-12-29T06:10:49;96562.91;;;9.74;100.00
24962;BME280;12992;50.884;13.668;2022-12-29T06:13:15;96560.44;;;9.73;100.00
24962;BME280;12992;50.884;13.668;2022-12-29T06:15:42;96565.34;;;9.76;98.29
24962;BME280;12992;50.884;13.668;2022-12-29T06:18:08;96564.50;;;9.80;97.87
24962;BME280;12992;50.884;13.668;2022-12-29T06:20:33;96554.72;;;9.79;97.58
24962;BME280;12992;50.884;13.668;2022-12-29T06:23:01;96548.78;;;9.82;96.45
24962;BME280;12992;50.884;13.668;2022-12-29T06:25:28;96562.66;;;9.91;95.84
24962;BME280;12992;50.884;13.668;2022-12-29T06:27:55;96547.16;;;9.91;95.54
24962;BME280;12992;50.884;13.668;2022-12-29T06:30:21;96528.34;;;9.80;95.70
24962;BME280;12992;50.884;13.668;2022-12-29T06:32:46;96509.59;;;9.68;96.41
24962;BME280;12992;50.884;13.668;2022-12-29T06:35:12;96504.97;;;9.63;96.57
24962;BME280;12992;50.884;13.668;2022-12-29T06:37:44;96497.63;;;9.64;96.06
24962;BME280;12992;50.884;13.668;2022-12-29T06:40:10;96492.44;;;9.57;96.83
24962;BME280;12992;50.884;13.668;2022-12-29T06:42:55;96488.91;;;9.52;97.29
24962;BME280;12992;50.884;13.668;2022-12-29T06:45:32;96488.09;;;9.51;96.76
24962;BME280;12992;50.884;13.668;2022-12-29T06:47:57;96494.34;;;9.52;96.50
24962;BME280;12992;50.884;13.668;2022-12-29T06:50:22;96495.97;;;9.53;96.45
24962;BME280;12992;50.884;13.668;2022-12-29T06:52:48;96485.63;;;9.50;97.79
24962;BME280;12992;50.884;13.668;2022-12-29T06:55:13;96475.53;;;9.35;98.86
24962;BME280;12992;50.884;13.668;2022-12-29T06:57:38;96469.03;;;9.31;98.66
24962;BME280;12992;50.884;13.668;2022-12-29T07:00:04;96470.38;;;9.28;98.87
24962;BME280;12992;50.884;13.668;2022-12-29T07:02:30;96472.28;;;9.33;99.58
24962;BME280;12992;50.884;13.668;2022-12-29T07:04:55;96467.38;;;9.25;100.00
24962;BME280;12992;50.884;13.668;2022-12-29T07:07:21;96458.66;;;9.13;100.00
24962;BME280;12992;50.884;13.668;2022-12-29T07:09:46;96491.03;;;9.29;99.58
24962;BME280;12992;50.884;13.668;2022-12-29T07:12:12;96489.94;;;9.25;99.71
24962;BME280;12992;50.884;13.668;2022-12-29T07:14:37;96474.72;;;9.19;100.00
24962;BME280;12992;50.884;13.668;2022-12-29T07:17:02;96483.41;;;9.26;100.00
24962;BME280;12992;50.884;13.668;2022-12-29T07:19:30;96501.91;;;9.29;100.00
24962;BME280;12992;50.884;13.668;2022-12-29T07:21:56;96523.63;;;9.34;100.00
24962;BME280;12992;50.884;13.668;2022-12-29T07:24:21;96515.25;;;9.41;99.69
24962;BME280;12992;50.884;13.668;2022-12-29T07:26:46;96533.47;;;9.51;99.78
24962;BME280;12992;50.884;13.668;2022-12-29T07:29:12;96524.22;;;9.52;99.72
24962;BME280;12992;50.884;13.668;2022-12-29T07:31:37;96529.16;;;9.55;100.00
24962;BME280;12992;50.884;13.668;2022-12-29T07:34:03;96524.53;;;9.65;98.26
24962;BME280;12992;50.884;13.668;2022-12-29T07:36:29;96527.53;;;9.69;98.41
24962;BME280;12992;50.884;13.668;2022-12-29T07:38:54;96512.84;;;9.65;98.37
24962;BME280;12992;50.884;13.668;2022-12-29T07:41:20;96506.59;;;9.59;98.17
24962;BME280;12992;50.884;13.668;2022-12-29T07:43:48;96484.28;;;9.52;98.14
24962;BME280;12992;50.884;13.668;2022-12-29T07:46:24;96486.72;;;9.49;97.97
24962;BME280;12992;50.884;13.668;2022-12-29T07:48:50;96478.56;;;9.49;97.33
24962;BME280;12992;50.884;13.668;2022-12-29T07:51:15;96476.13;;;9.47;97.25
24962;BME280;12992;50.884;13.668;2022-12-29T07:53:40;96482.38;;;9.48;97.32
24962;BME280;12992;50.884;13.668;2022-12-29T07:56:06;96497.59;;;9.54;96.43
24962;BME280;12992;50.884;13.668;2022-12-29T07:58:31;96487.81;;;9.53;96.58
24962;BME280;12992;50.884;13.668;2022-12-29T08:00:56;96494.09;;;9.63;93.82
24962;BME280;12992;50.884;13.668;2022-12-29T08:03:22;96491.66;;;9.67;93.92
24962;BME280;12992;50.884;13.668;2022-12-29T08:05:48;96497.09;;;9.67;93.17
24962;BME280;12992;50.884;13.668;2022-12-29T08:08:14;96509.06;;;9.76;92.55
24962;BME280;12992;50.884;13.668;2022-12-29T08:10:39;96510.13;;;9.80;92.28
24962;BME280;12992;50.884;13.668;2022-12-29T08:13:04;96505.81;;;9.89;90.61
24962;BME280;12992;50.884;13.668;2022-12-29T08:15:30;96500.91;;;9.91;90.74
24962;BME280;12992;50.884;13.668;2022-12-29T08:17:55;96501.19;;;9.90;91.45
24962;BME280;12992;50.884;13.668;2022-12-29T08:20:20;96502.28;;;9.94;90.27
24962;BME280;12992;50.884;13.668;2022-12-29T08:22:46;96518.31;;;10.06;90.56
24962;BME280;12992;50.884;13.668;2022-12-29T08:25:11;96511.25;;;10.10;89.01
24962;BME280;12992;50.884;13.668;2022-12-29T08:27:36;96520.22;;;10.10;88.57
24962;BME280;12992;50.884;13.668;2022-12-29T08:30:02;96513.16;;;10.09;89.54
24962;BME280;12992;50.884;13.668;2022-12-29T08:32:28;96511.78;;;10.07;89.59
24962;BME280;12992;50.884;13.668;2022-12-29T08:34:53;96519.69;;;10.08;89.76
24962;BME280;12992;50.884;13.668;2022-12-29T08:37:19;96519.94;;;10.12;89.42
24962;BME280;12992;50.884;13.668;2022-12-29T08:39:45;96522.69;;;10.17;89.46
24962;BME280;12992;50.884;13.668;2022-12-29T08:42:10;96523.50;;;10.23;89.17
24962;BME280;12992;50.884;13.668;2022-12-29T08:44:35;96534.66;;;10.31;88.74
24962;BME280;12992;50.884;13.668;2022-12-29T08:47:01;96549.34;;;10.40;88.22
24962;BME280;12992;50.884;13.668;2022-12-29T08:49:26;96536.31;;;10.42;88.47
24962;BME280;12992;50.884;13.668;2022-12-29T08:51:51;96543.63;;;10.47;88.89
24962;BME280;12992;50.884;13.668;2022-12-29T08:54:16;96541.44;;;10.49;89.28
24962;BME280;12992;50.884;13.668;2022-12-29T08:56:44;96552.06;;;10.50;89.23
24962;BME280;12992;50.884;13.668;2022-12-29T08:59:10;96542.28;;;10.55;89.32
24962;BME280;12992;50.884;13.668;2022-12-29T09:01:36;96557.78;;;10.59;88.34
24962;BME280;12992;50.884;13.668;2022-12-29T09:04:05;96555.34;;;10.63;88.65
24962;BME280;12992;50.884;13.668;2022-12-29T09:06:30;96552.31;;;10.59;89.07
24962;BME280;12992;50.884;13.668;2022-12-29T09:08:56;96550.41;;;10.60;89.06
24962;BME280;12992;50.884;13.668;2022-12-29T09:11:23;96553.41;;;10.63;88.74
24962;BME280;12992;50.884;13.668;2022-12-29T09:13:49;96525.66;;;10.61;88.82
24962;BME280;12992;50.884;13.668;2022-12-29T09:16:16;96540.63;;;10.64;88.30
24962;BME280;12992;50.884;13.668;2022-12-29T09:18:42;96530.81;;;10.63;88.54
24962;BME280;12992;50.884;13.668;2022-12-29T09:21:09;96523.75;;;10.62;88.51
24962;BME280;12992;50.884;13.668;2022-12-29T09:23:35;96515.88;;;10.55;88.01
24962;BME280;12992;50.884;13.668;2022-12-29T09:26:01;96512.31;;;10.49;87.75
24962;BME280;12992;50.884;13.668;2022-12-29T09:28:27;96515.88;;;10.45;88.61
24962;BME280;12992;50.884;13.668;2022-12-29T09:30:55;96517.47;;;10.51;86.93
24962;BME280;12992;50.884;13.668;2022-12-29T09:33:20;96519.16;;;10.52;86.83
24962;BME280;12992;50.884;13.668;2022-12-29T09:35:51;96506.59;;;10.56;86.37
24962;BME280;12992;50.884;13.668;2022-12-29T09:38:17;96506.31;;;10.58;86.49
24962;BME280;12992;50.884;13.668;2022-12-29T09:40:45;96498.19;;;10.53;86.62
24962;BME280;12992;50.884;13.668;2022-12-29T09:43:24;96507.94;;;10.59;85.20
24962;BME280;12992;50.884;13.668;2022-12-29T09:46:20;96487.28;;;10.53;85.48
24962;BME280;12992;50.884;13.668;2022-12-29T09:48:55;96472.88;;;10.52;84.96
24962;BME280;12992;50.884;13.668;2022-12-29T09:51:23;96477.50;;;10.46;86.24
24962;BME280;12992;50.884;13.668;2022-12-29T09:53:55;96459.53;;;10.40;85.42
24962;BME280;12992;50.884;13.668;2022-12-29T09:56:25;96473.72;;;10.37;85.10
24962;BME280;12992;50.884;13.668;2022-12-29T09:58:55;96467.72;;;10.30;85.71
24962;BME280;12992;50.884;13.668;2022-12-29T10:01:43;96467.19;;;10.23;86.36
24962;BME280;12992;50.884;13.668;2022-12-29T10:04:11;96479.16;;;10.27;85.30
24962;BME280;12992;50.884;13.668;2022-12-29T10:07:09;96476.69;;;10.31;84.95
24962;BME280;12992;50.884;13.668;2022-12-29T10:10:03;96476.97;;;10.29;84.68
24962;BME280;12992;50.884;13.668;2022-12-29T10:12:47;96483.50;;;10.33;85.43
24962;BME280;12992;50.884;13.668;2022-12-29T10:16:01;96482.97;;;10.31;85.74
24962;BME280;12992;50.884;13.668;2022-12-29T10:18:48;96496.84;;;10.35;85.98
24962;BME280;12992;50.884;13.668;2022-12-29T10:21:31;96505.25;;;10.54;85.05
24962;BME280;12992;50.884;13.668;2022-12-29T10:24:04;96501.41;;;10.70;84.11
24962;BME280;12992;50.884;13.668;2022-12-29T10:26:37;96550.25;;;11.26;82.25
24962;BME280;12992;50.884;13.668;2022-12-29T10:29:08;96530.66;;;11.19;82.33
24962;BME280;12992;50.884;13.668;2022-12-29T10:31:41;96518.41;;;11.11;82.62
24962;BME280;12992;50.884;13.668;2022-12-29T10:34:22;96506.69;;;11.11;82.57
24962;BME280;12992;50.884;13.668;2022-12-29T10:36:54;96506.41;;;11.12;82.86
24962;BME280;12992;50.884;13.668;2022-12-29T10:39:30;96517.25;;;11.27;83.20
24962;BME280;12992;50.884;13.668;2022-12-29T10:42:27;96529.41;;;11.50;82.38
24962;BME280;12992;50.884;13.668;2022-12-29T10:44:56;96514.41;;;11.48;82.61
24962;BME280;12992;50.884;13.668;2022-12-29T10:47:31;96510.81;;;11.62;81.90
24962;BME280;12992;50.884;13.668;2022-12-29T10:49:59;96506.97;;;11.63;82.66
24962;BME280;12992;50.884;13.668;2022-12-29T10:52:26;96494.19;;;11.59;82.85
24962;BME280;12992;50.884;13.668;2022-12-29T10:54:56;96490.06;;;11.67;82.43
24962;BME280;12992;50.884;13.668;2022-12-29T10:57:27;96478.13;;;11.57;83.23
24962;BME280;12992;50.884;13.668;2022-12-29T10:59:54;96481.09;;;11.61;83.28
24962;BME280;12992;50.884;13.668;2022-12-29T11:04:59;96509.31;;;11.85;82.24
24962;BME280;12992;50.884;13.668;2022-12-29T11:07:28;96512.41;;;12.08;80.81
24962;BME280;12992;50.884;13.668;2022-12-29T11:09:55;96512.06;;;12.19;81.39
24962;BME280;12992;50.884;13.668;2022-12-29T11:15:01;96491.50;;;12.27;80.23
24962;BME280;12992;50.884;13.668;2022-12-29T11:17:26;96467.63;;;12.14;81.40
24962;BME280;12992;50.884;13.668;2022-12-29T11:19:52;96478.53;;;12.14;80.73
24962;BME280;12992;50.884;13.668;2022-12-29T11:22:24;96474.69;;;12.15;80.66
24962;BME280;12992;50.884;13.668;2022-12-29T11:24:51;96499.63;;;12.37;81.17
24962;BME280;12992;50.884;13.668;2022-12-29T11:27:25;96515.22;;;12.61;81.78
24962;BME280;12992;50.884;13.668;2022-12-29T11:29:52;96505.78;;;12.77;79.75
24962;BME280;12992;50.884;13.668;2022-12-29T11:32:21;96485.78;;;12.82;78.15
24962;BME280;12992;50.884;13.668;2022-12-29T11:34:47;96460.59;;;12.61;79.39
24962;BME280;12992;50.884;13.668;2022-12-29T11:37:16;96422.44;;;12.27;79.62
24962;BME280;12992;50.884;13.668;2022-12-29T11:42:18;96410.31;;;11.85;82.72
24962;BME280;12992;50.884;13.668;2022-12-29T11:44:46;96421.81;;;11.77;83.13
24962;BME280;12992;50.884;13.668;2022-12-29T11:47:26;96417.44;;;11.76;82.93
24962;BME280;12992;50.884;13.668;2022-12-29T11:49:56;96420.19;;;11.71;82.74
24962;BME280;12992;50.884;13.668;2022-12-29T11:52:25;96436.78;;;11.79;83.38
24962;BME280;12992;50.884;13.668;2022-12-29T11:54:53;96435.97;;;11.79;83.03
24962;BME280;12992;50.884;13.668;2022-12-29T11:57:19;96431.06;;;11.81;83.31
24962;BME280;12992;50.884;13.668;2022-12-29T11:59:54;96427.50;;;11.85;82.52
24962;BME280;12992;50.884;13.668;2022-12-29T12:02:31;96422.31;;;11.84;82.15
24962;BME280;12992;50.884;13.668;2022-12-29T12:05:09;96419.59;;;11.84;81.92
24962;BME280;12992;50.884;13.668;2022-12-29T12:07:45;96435.06;;;11.94;81.50
24962;BME280;12992;50.884;13.668;2022-12-29T12:10:18;96422.78;;;11.91;81.31
24962;BME280;12992;50.884;13.668;2022-12-29T12:12:50;96439.94;;;11.97;81.31
24962;BME280;12992;50.884;13.668;2022-12-29T12:15:25;96445.59;;;12.05;81.60
24962;BME280;12992;50.884;13.668;2022-12-29T12:18:15;96440.13;;;12.05;81.01
24962;BME280;12992;50.884;13.668;2022-12-29T12:20:56;96406.38;;;11.96;80.51
24962;BME280;12992;50.884;13.668;2022-12-29T12:23:32;96430.34;;;11.99;81.21
24962;BME280;12992;50.884;13.668;2022-12-29T12:26:20;96407.50;;;11.90;81.46
24962;BME280;12992;50.884;13.668;2022-12-29T12:32:11;96417.53;;;12.00;80.02
24962;BME280;12992;50.884;13.668;2022-12-29T12:34:42;96418.63;;;11.99;80.18
24962;BME280;12992;50.884;13.668;2022-12-29T12:37:17;96416.16;;;12.02;80.70
24962;BME280;12992;50.884;13.668;2022-12-29T12:45:43;96410.16;;;12.29;78.79
24962;BME280;12992;50.884;13.668;2022-12-29T12:56:15;96383.97;;;12.28;78.18
24962;BME280;12992;50.884;13.668;2022-12-29T12:58:59;96374.53;;;12.15;78.95
24962;BME280;12992;50.884;13.668;2022-12-29T13:02:12;96378.41;;;12.09;79.02
24962;BME280;12992;50.884;13.668;2022-12-29T13:08:03;96379.69;;;12.17;79.11
24962;BME280;12992;50.884;13.668;2022-12-29T13:10:40;96380.50;;;12.17;78.57
24962;BME280;12992;50.884;13.668;2022-12-29T13:15:50;96367.25;;;12.06;78.28
24962;BME280;12992;50.884;13.668;2022-12-29T13:18:32;96352.91;;;11.95;78.28
24962;BME280;12992;50.884;13.668;2022-12-29T13:21:22;96356.50;;;11.90;79.13
24962;BME280;12992;50.884;13.668;2022-12-29T13:24:01;96364.44;;;11.87;80.07
24962;BME280;12992;50.884;13.668;2022-12-29T13:26:35;96371.75;;;11.91;79.48
24962;BME280;12992;50.884;13.668;2022-12-29T13:29:18;96359.00;;;11.87;80.06
24962;BME280;12992;50.884;13.668;2022-12-29T13:32:05;96356.03;;;11.78;80.40
24962;BME280;12992;50.884;13.668;2022-12-29T13:34:46;96367.28;;;11.72;81.17
24962;BME280;12992;50.884;13.668;2022-12-29T13:37:17;96359.16;;;11.67;80.77
24962;BME280;12992;50.884;13.668;2022-12-29T13:39:52;96356.38;;;11.72;80.30
24962;BME280;12992;50.884;13.668;2022-12-29T13:42:20;96371.63;;;11.73;80.20
24962;BME280;12992;50.884;13.668;2022-12-29T13:44:51;96366.75;;;11.70;80.43
24962;BME280;12992;50.884;13.668;2022-12-29T13:47:28;96379.31;;;11.66;81.56
24962;BME280;12992;50.884;13.668;2022-12-29T13:49:57;96362.50;;;11.58;81.71
24962;BME280;12992;50.884;13.668;2022-12-29T13:58:46;96377.78;;;11.54;82.46
24962;BME280;12992;50.884;13.668;2022-12-29T14:01:40;96384.66;;;11.47;81.69
24962;BME280;12992;50.884;13.668;2022-12-29T14:04:13;96385.47;;;11.47;81.75
24962;BME280;12992;50.884;13.668;2022-12-29T14:06:39;96402.91;;;11.51;82.20